sensor_id;sensor_type;location;lat;lon;timestamp;P1;durP1;ratioP1;P2;durP2;ratioP2
74551;SDS011;63025;55.472;38.432;2023-07-31T00:00:27;12.70;;;8.10;;
74551;SDS011;63025;55.472;38.432;2023-07-31T00:02:54;15.05;;;7.85;;
74551;SDS011;63025;55.472;38.432;2023-07-31T00:05:20;16.23;;;8.80;;
74551;SDS011;63025;55.472;38.432;2023-07-31T00:07:46;14.20;;;7.90;;
74551;SDS011;63025;55.472;38.432;2023-07-31T00:10:12;14.15;;;7.75;;
74551;SDS011;63025;55.472;38.432;2023-07-31T00:12:38;13.77;;;8.40;;
74551;SDS011;63025;55.472;38.432;2023-07-31T00:15:06;13.85;;;7.97;;
74551;SDS011;63025;55.472;38.432;2023-07-31T00:17:32;13.38;;;7.95;;
74551;SDS011;63025;55.472;38.432;2023-07-31T00:19:58;16.70;;;9.50;;
74551;SDS011;63025;55.472;38.432;2023-07-31T00:22:24;13.65;;;8.02;;
74551;SDS011;63025;55.472;38.432;2023-07-31T00:24:50;15.35;;;8.32;;
74551;SDS011;63025;55.472;38.432;2023-07-31T00:27:15;13.30;;;8.07;;
74551;SDS011;63025;55.472;38.432;2023-07-31T00:29:43;17.92;;;10.75;;
74551;SDS011;63025;55.472;38.432;2023-07-31T00:32:09;17.52;;;9.48;;
74551;SDS011;63025;55.472;38.432;2023-07-31T00:34:37;19.02;;;9.55;;
74551;SDS011;63025;55.472;38.432;2023-07-31T00:37:03;16.23;;;8.90;;
74551;SDS011;63025;55.472;38.432;2023-07-31T00:39:29;21.83;;;10.75;;
74551;SDS011;63025;55.472;38.432;2023-07-31T00:41:56;17.90;;;9.80;;
74551;SDS011;63025;55.472;38.432;2023-07-31T00:44:22;14.90;;;8.43;;
74551;SDS011;63025;55.472;38.432;2023-07-31T00:46:48;16.02;;;8.02;;
74551;SDS011;63025;55.472;38.432;2023-07-31T00:49:15;13.27;;;8.43;;
74551;SDS011;63025;55.472;38.432;2023-07-31T00:51:41;15.70;;;8.02;;
74551;SDS011;63025;55.472;38.432;2023-07-31T00:54:07;16.52;;;8.80;;
74551;SDS011;63025;55.472;38.432;2023-07-31T00:56:33;12.90;;;8.15;;
74551;SDS011;63025;55.472;38.432;2023-07-31T00:59:00;14.23;;;8.13;;
74551;SDS011;63025;55.472;38.432;2023-07-31T01:01:26;15.73;;;7.78;;
74551;SDS011;63025;55.472;38.432;2023-07-31T01:03:52;16.73;;;10.02;;
74551;SDS011;63025;55.472;38.432;2023-07-31T01:06:36;18.63;;;9.45;;
74551;SDS011;63025;55.472;38.432;2023-07-31T01:11:53;13.63;;;8.02;;
74551;SDS011;63025;55.472;38.432;2023-07-31T01:14:22;19.80;;;10.20;;
74551;SDS011;63025;55.472;38.432;2023-07-31T01:16:48;19.90;;;9.68;;
74551;SDS011;63025;55.472;38.432;2023-07-31T01:19:14;13.27;;;8.13;;
74551;SDS011;63025;55.472;38.432;2023-07-31T01:24:22;15.43;;;7.80;;
74551;SDS011;63025;55.472;38.432;2023-07-31T01:26:57;19.90;;;7.72;;
74551;SDS011;63025;55.472;38.432;2023-07-31T01:32:13;16.42;;;7.95;;
74551;SDS011;63025;55.472;38.432;2023-07-31T01:34:43;16.60;;;8.02;;
74551;SDS011;63025;55.472;38.432;2023-07-31T01:37:09;14.75;;;8.57;;
74551;SDS011;63025;55.472;38.432;2023-07-31T01:39:35;18.92;;;9.20;;
74551;SDS011;63025;55.472;38.432;2023-07-31T01:42:01;18.40;;;9.07;;
74551;SDS011;63025;55.472;38.432;2023-07-31T01:44:27;15.02;;;7.78;;
74551;SDS011;63025;55.472;38.432;2023-07-31T01:46:53;16.52;;;7.72;;
74551;SDS011;63025;55.472;38.432;2023-07-31T01:49:19;16.23;;;8.45;;
74551;SDS011;63025;55.472;38.432;2023-07-31T01:51:45;13.73;;;8.02;;
74551;SDS011;63025;55.472;38.432;2023-07-31T01:54:11;19.33;;;7.93;;
74551;SDS011;63025;55.472;38.432;2023-07-31T01:56:37;16.02;;;8.23;;
74551;SDS011;63025;55.472;38.432;2023-07-31T01:59:03;14.63;;;7.18;;
74551;SDS011;63025;55.472;38.432;2023-07-31T02:01:28;17.30;;;8.52;;
74551;SDS011;63025;55.472;38.432;2023-07-31T02:03:54;17.27;;;8.20;;
74551;SDS011;63025;55.472;38.432;2023-07-31T02:06:22;13.57;;;7.45;;
74551;SDS011;63025;55.472;38.432;2023-07-31T02:08:48;13.45;;;7.00;;
74551;SDS011;63025;55.472;38.432;2023-07-31T02:11:14;15.85;;;7.53;;
74551;SDS011;63025;55.472;38.432;2023-07-31T02:13:40;13.57;;;7.82;;
74551;SDS011;63025;55.472;38.432;2023-07-31T02:16:06;13.65;;;7.07;;
74551;SDS011;63025;55.472;38.432;2023-07-31T02:18:32;12.02;;;7.25;;
74551;SDS011;63025;55.472;38.432;2023-07-31T02:20:58;13.43;;;7.43;;
74551;SDS011;63025;55.472;38.432;2023-07-31T02:23:25;14.45;;;7.35;;
74551;SDS011;63025;55.472;38.432;2023-07-31T02:25:51;13.70;;;6.78;;
74551;SDS011;63025;55.472;38.432;2023-07-31T02:28:16;14.13;;;7.25;;
74551;SDS011;63025;55.472;38.432;2023-07-31T02:30:45;11.15;;;6.80;;
74551;SDS011;63025;55.472;38.432;2023-07-31T02:33:12;15.35;;;6.97;;
74551;SDS011;63025;55.472;38.432;2023-07-31T02:35:38;11.13;;;6.70;;
74551;SDS011;63025;55.472;38.432;2023-07-31T02:38:04;12.52;;;6.25;;
74551;SDS011;63025;55.472;38.432;2023-07-31T02:40:30;10.95;;;6.20;;
74551;SDS011;63025;55.472;38.432;2023-07-31T02:42:56;13.27;;;7.50;;
74551;SDS011;63025;55.472;38.432;2023-07-31T02:45:22;15.50;;;8.75;;
74551;SDS011;63025;55.472;38.432;2023-07-31T02:47:47;15.98;;;8.02;;
74551;SDS011;63025;55.472;38.432;2023-07-31T02:50:14;11.63;;;7.90;;
74551;SDS011;63025;55.472;38.432;2023-07-31T02:52:40;12.25;;;7.45;;
74551;SDS011;63025;55.472;38.432;2023-07-31T02:55:06;11.45;;;6.30;;
74551;SDS011;63025;55.472;38.432;2023-07-31T02:57:32;15.13;;;6.95;;
74551;SDS011;63025;55.472;38.432;2023-07-31T02:59:58;19.40;;;7.13;;
74551;SDS011;63025;55.472;38.432;2023-07-31T03:02:24;21.13;;;7.05;;
74551;SDS011;63025;55.472;38.432;2023-07-31T03:04:49;12.00;;;6.65;;
74551;SDS011;63025;55.472;38.432;2023-07-31T03:07:15;11.02;;;6.20;;
74551;SDS011;63025;55.472;38.432;2023-07-31T03:09:41;8.45;;;6.38;;
74551;SDS011;63025;55.472;38.432;2023-07-31T03:12:07;11.73;;;6.45;;
74551;SDS011;63025;55.472;38.432;2023-07-31T03:14:33;11.10;;;6.53;;
74551;SDS011;63025;55.472;38.432;2023-07-31T03:16:59;11.65;;;5.88;;
74551;SDS011;63025;55.472;38.432;2023-07-31T03:19:25;11.57;;;6.28;;
74551;SDS011;63025;55.472;38.432;2023-07-31T03:21:51;11.63;;;5.70;;
74551;SDS011;63025;55.472;38.432;2023-07-31T03:24:17;11.77;;;6.28;;
74551;SDS011;63025;55.472;38.432;2023-07-31T03:26:43;10.05;;;6.22;;
74551;SDS011;63025;55.472;38.432;2023-07-31T03:29:09;8.70;;;5.35;;
74551;SDS011;63025;55.472;38.432;2023-07-31T03:31:34;7.90;;;4.93;;
74551;SDS011;63025;55.472;38.432;2023-07-31T03:34:00;10.10;;;5.57;;
74551;SDS011;63025;55.472;38.432;2023-07-31T03:36:27;9.02;;;5.30;;
74551;SDS011;63025;55.472;38.432;2023-07-31T03:38:53;11.60;;;5.45;;
74551;SDS011;63025;55.472;38.432;2023-07-31T03:41:19;10.25;;;4.90;;
74551;SDS011;63025;55.472;38.432;2023-07-31T03:43:49;11.02;;;5.28;;
74551;SDS011;63025;55.472;38.432;2023-07-31T03:46:22;9.85;;;5.15;;
74551;SDS011;63025;55.472;38.432;2023-07-31T03:48:48;10.65;;;5.15;;
74551;SDS011;63025;55.472;38.432;2023-07-31T03:51:14;14.52;;;6.05;;
74551;SDS011;63025;55.472;38.432;2023-07-31T03:53:40;9.25;;;4.97;;
74551;SDS011;63025;55.472;38.432;2023-07-31T03:56:06;8.73;;;5.00;;
74551;SDS011;63025;55.472;38.432;2023-07-31T03:58:32;8.13;;;5.03;;
74551;SDS011;63025;55.472;38.432;2023-07-31T04:00:58;8.23;;;5.22;;
74551;SDS011;63025;55.472;38.432;2023-07-31T04:03:24;10.10;;;5.20;;
74551;SDS011;63025;55.472;38.432;2023-07-31T04:05:49;10.82;;;4.95;;
74551;SDS011;63025;55.472;38.432;2023-07-31T04:08:15;7.07;;;4.72;;
74551;SDS011;63025;55.472;38.432;2023-07-31T04:10:41;12.00;;;5.25;;
74551;SDS011;63025;55.472;38.432;2023-07-31T04:13:07;11.32;;;4.95;;
74551;SDS011;63025;55.472;38.432;2023-07-31T04:15:32;11.70;;;5.65;;
74551;SDS011;63025;55.472;38.432;2023-07-31T04:17:58;10.73;;;5.03;;
74551;SDS011;63025;55.472;38.432;2023-07-31T04:20:24;8.45;;;4.95;;
74551;SDS011;63025;55.472;38.432;2023-07-31T04:22:50;10.15;;;5.18;;
74551;SDS011;63025;55.472;38.432;2023-07-31T04:25:16;9.13;;;5.10;;
74551;SDS011;63025;55.472;38.432;2023-07-31T04:27:41;9.82;;;5.13;;
74551;SDS011;63025;55.472;38.432;2023-07-31T04:30:07;8.55;;;4.95;;
74551;SDS011;63025;55.472;38.432;2023-07-31T04:32:34;12.45;;;5.25;;
74551;SDS011;63025;55.472;38.432;2023-07-31T04:35:01;10.13;;;5.10;;
74551;SDS011;63025;55.472;38.432;2023-07-31T04:37:29;8.13;;;4.90;;
74551;SDS011;63025;55.472;38.432;2023-07-31T04:39:55;6.90;;;4.78;;
74551;SDS011;63025;55.472;38.432;2023-07-31T04:42:21;7.43;;;4.28;;
74551;SDS011;63025;55.472;38.432;2023-07-31T04:44:47;7.82;;;4.65;;
74551;SDS011;63025;55.472;38.432;2023-07-31T04:47:12;9.30;;;4.00;;
74551;SDS011;63025;55.472;38.432;2023-07-31T04:49:38;8.55;;;4.13;;
74551;SDS011;63025;55.472;38.432;2023-07-31T04:52:04;9.27;;;4.25;;
74551;SDS011;63025;55.472;38.432;2023-07-31T04:54:30;8.43;;;4.43;;
74551;SDS011;63025;55.472;38.432;2023-07-31T04:56:56;8.02;;;3.92;;
74551;SDS011;63025;55.472;38.432;2023-07-31T04:59:22;8.93;;;4.20;;
74551;SDS011;63025;55.472;38.432;2023-07-31T05:01:48;7.82;;;4.30;;
74551;SDS011;63025;55.472;38.432;2023-07-31T05:04:14;10.98;;;4.30;;
74551;SDS011;63025;55.472;38.432;2023-07-31T05:06:40;6.63;;;3.30;;
74551;SDS011;63025;55.472;38.432;2023-07-31T05:09:07;6.97;;;4.10;;
74551;SDS011;63025;55.472;38.432;2023-07-31T05:11:35;7.47;;;3.83;;
74551;SDS011;63025;55.472;38.432;2023-07-31T05:14:00;9.00;;;4.18;;
74551;SDS011;63025;55.472;38.432;2023-07-31T05:16:26;5.10;;;3.35;;
74551;SDS011;63025;55.472;38.432;2023-07-31T05:18:52;7.82;;;4.00;;
74551;SDS011;63025;55.472;38.432;2023-07-31T05:21:18;8.23;;;3.67;;
74551;SDS011;63025;55.472;38.432;2023-07-31T05:23:44;7.60;;;3.30;;
74551;SDS011;63025;55.472;38.432;2023-07-31T05:26:10;8.30;;;3.60;;
74551;SDS011;63025;55.472;38.432;2023-07-31T05:28:36;7.35;;;3.60;;
74551;SDS011;63025;55.472;38.432;2023-07-31T05:31:03;6.63;;;3.60;;
74551;SDS011;63025;55.472;38.432;2023-07-31T05:33:30;6.95;;;3.40;;
74551;SDS011;63025;55.472;38.432;2023-07-31T05:35:56;10.10;;;3.35;;
74551;SDS011;63025;55.472;38.432;2023-07-31T05:38:22;8.02;;;3.17;;
74551;SDS011;63025;55.472;38.432;2023-07-31T05:40:48;9.77;;;3.50;;
74551;SDS011;63025;55.472;38.432;2023-07-31T05:43:14;9.20;;;3.33;;
74551;SDS011;63025;55.472;38.432;2023-07-31T05:45:41;7.22;;;3.00;;
74551;SDS011;63025;55.472;38.432;2023-07-31T05:48:09;6.55;;;3.45;;
74551;SDS011;63025;55.472;38.432;2023-07-31T05:50:34;6.25;;;3.30;;
74551;SDS011;63025;55.472;38.432;2023-07-31T05:53:00;6.13;;;2.97;;
74551;SDS011;63025;55.472;38.432;2023-07-31T05:55:26;7.38;;;3.13;;
74551;SDS011;63025;55.472;38.432;2023-07-31T05:57:52;6.03;;;2.88;;
74551;SDS011;63025;55.472;38.432;2023-07-31T06:00:18;7.25;;;2.85;;
74551;SDS011;63025;55.472;38.432;2023-07-31T06:02:44;5.57;;;2.88;;
74551;SDS011;63025;55.472;38.432;2023-07-31T06:05:10;6.55;;;2.70;;
74551;SDS011;63025;55.472;38.432;2023-07-31T06:07:36;12.57;;;3.45;;
74551;SDS011;63025;55.472;38.432;2023-07-31T06:10:02;8.20;;;2.85;;
74551;SDS011;63025;55.472;38.432;2023-07-31T06:12:32;8.02;;;3.08;;
74551;SDS011;63025;55.472;38.432;2023-07-31T06:14:58;4.78;;;2.67;;
74551;SDS011;63025;55.472;38.432;2023-07-31T06:17:25;7.20;;;2.40;;
74551;SDS011;63025;55.472;38.432;2023-07-31T06:19:51;4.93;;;2.60;;
74551;SDS011;63025;55.472;38.432;2023-07-31T06:22:18;7.63;;;3.08;;
74551;SDS011;63025;55.472;38.432;2023-07-31T06:24:44;6.70;;;3.17;;
74551;SDS011;63025;55.472;38.432;2023-07-31T06:27:10;9.48;;;2.92;;
74551;SDS011;63025;55.472;38.432;2023-07-31T06:29:36;7.57;;;2.80;;
74551;SDS011;63025;55.472;38.432;2023-07-31T06:32:03;7.65;;;2.70;;
74551;SDS011;63025;55.472;38.432;2023-07-31T06:34:29;7.47;;;3.38;;
74551;SDS011;63025;55.472;38.432;2023-07-31T06:36:56;5.03;;;2.75;;
74551;SDS011;63025;55.472;38.432;2023-07-31T06:39:22;6.65;;;2.85;;
74551;SDS011;63025;55.472;38.432;2023-07-31T06:41:48;7.78;;;3.08;;
74551;SDS011;63025;55.472;38.432;2023-07-31T06:44:14;5.95;;;2.58;;
74551;SDS011;63025;55.472;38.432;2023-07-31T06:46:40;6.20;;;2.78;;
74551;SDS011;63025;55.472;38.432;2023-07-31T06:49:08;5.30;;;2.83;;
74551;SDS011;63025;55.472;38.432;2023-07-31T06:51:35;5.13;;;2.70;;
74551;SDS011;63025;55.472;38.432;2023-07-31T06:54:02;8.73;;;2.75;;
74551;SDS011;63025;55.472;38.432;2023-07-31T06:56:28;4.97;;;2.70;;
74551;SDS011;63025;55.472;38.432;2023-07-31T06:58:55;5.93;;;2.92;;
74551;SDS011;63025;55.472;38.432;2023-07-31T07:01:22;4.50;;;2.40;;
74551;SDS011;63025;55.472;38.432;2023-07-31T07:03:48;7.75;;;2.47;;
74551;SDS011;63025;55.472;38.432;2023-07-31T07:06:17;5.97;;;2.70;;
74551;SDS011;63025;55.472;38.432;2023-07-31T07:08:43;7.03;;;2.65;;
74551;SDS011;63025;55.472;38.432;2023-07-31T07:11:09;6.70;;;2.60;;
74551;SDS011;63025;55.472;38.432;2023-07-31T07:13:35;5.82;;;2.00;;
74551;SDS011;63025;55.472;38.432;2023-07-31T07:16:01;6.47;;;2.30;;
74551;SDS011;63025;55.472;38.432;2023-07-31T07:18:27;5.93;;;2.30;;
74551;SDS011;63025;55.472;38.432;2023-07-31T07:20:53;4.50;;;2.30;;
74551;SDS011;63025;55.472;38.432;2023-07-31T07:23:20;3.70;;;1.80;;
74551;SDS011;63025;55.472;38.432;2023-07-31T07:25:46;4.20;;;2.00;;
74551;SDS011;63025;55.472;38.432;2023-07-31T07:28:13;6.03;;;2.45;;
74551;SDS011;63025;55.472;38.432;2023-07-31T07:30:39;5.03;;;2.10;;
74551;SDS011;63025;55.472;38.432;2023-07-31T07:33:06;6.60;;;2.53;;
74551;SDS011;63025;55.472;38.432;2023-07-31T07:35:35;5.22;;;2.13;;
74551;SDS011;63025;55.472;38.432;2023-07-31T07:38:02;4.22;;;1.83;;
74551;SDS011;63025;55.472;38.432;2023-07-31T07:40:28;6.20;;;2.10;;
74551;SDS011;63025;55.472;38.432;2023-07-31T07:42:54;5.88;;;2.38;;
74551;SDS011;63025;55.472;38.432;2023-07-31T07:45:20;7.15;;;2.20;;
74551;SDS011;63025;55.472;38.432;2023-07-31T07:47:46;4.38;;;2.00;;
74551;SDS011;63025;55.472;38.432;2023-07-31T07:50:11;4.22;;;1.95;;
74551;SDS011;63025;55.472;38.432;2023-07-31T07:52:37;3.65;;;1.85;;
74551;SDS011;63025;55.472;38.432;2023-07-31T07:55:03;6.38;;;2.10;;
74551;SDS011;63025;55.472;38.432;2023-07-31T07:57:29;4.97;;;1.80;;
74551;SDS011;63025;55.472;38.432;2023-07-31T07:59:55;5.57;;;1.75;;
74551;SDS011;63025;55.472;38.432;2023-07-31T08:02:21;5.47;;;2.00;;
74551;SDS011;63025;55.472;38.432;2023-07-31T08:04:47;4.13;;;1.60;;
74551;SDS011;63025;55.472;38.432;2023-07-31T08:07:13;3.20;;;1.60;;
74551;SDS011;63025;55.472;38.432;2023-07-31T08:09:39;3.90;;;1.80;;
74551;SDS011;63025;55.472;38.432;2023-07-31T08:12:06;5.47;;;1.88;;
74551;SDS011;63025;55.472;38.432;2023-07-31T08:14:33;4.18;;;2.00;;
74551;SDS011;63025;55.472;38.432;2023-07-31T08:16:59;7.03;;;1.38;;
74551;SDS011;63025;55.472;38.432;2023-07-31T08:19:25;12.23;;;6.47;;
74551;SDS011;63025;55.472;38.432;2023-07-31T08:21:51;6.07;;;2.40;;
74551;SDS011;63025;55.472;38.432;2023-07-31T08:24:17;3.85;;;1.98;;
74551;SDS011;63025;55.472;38.432;2023-07-31T08:26:42;6.75;;;2.80;;
74551;SDS011;63025;55.472;38.432;2023-07-31T08:29:08;3.35;;;1.60;;
74551;SDS011;63025;55.472;38.432;2023-07-31T08:31:34;3.92;;;1.90;;
74551;SDS011;63025;55.472;38.432;2023-07-31T08:34:00;5.32;;;1.83;;
74551;SDS011;63025;55.472;38.432;2023-07-31T08:36:27;4.75;;;1.95;;
74551;SDS011;63025;55.472;38.432;2023-07-31T08:38:53;3.00;;;1.70;;
74551;SDS011;63025;55.472;38.432;2023-07-31T08:41:19;3.03;;;1.80;;
74551;SDS011;63025;55.472;38.432;2023-07-31T08:43:49;5.82;;;1.80;;
74551;SDS011;63025;55.472;38.432;2023-07-31T08:46:17;6.63;;;1.95;;
74551;SDS011;63025;55.472;38.432;2023-07-31T08:48:44;3.20;;;1.60;;
74551;SDS011;63025;55.472;38.432;2023-07-31T08:51:10;6.95;;;2.17;;
74551;SDS011;63025;55.472;38.432;2023-07-31T08:53:37;3.70;;;1.80;;
74551;SDS011;63025;55.472;38.432;2023-07-31T08:56:03;4.65;;;2.30;;
74551;SDS011;63025;55.472;38.432;2023-07-31T08:58:30;10.10;;;4.03;;
74551;SDS011;63025;55.472;38.432;2023-07-31T09:00:58;12.23;;;4.68;;
74551;SDS011;63025;55.472;38.432;2023-07-31T09:03:26;5.38;;;2.75;;
74551;SDS011;63025;55.472;38.432;2023-07-31T09:05:52;15.27;;;7.65;;
74551;SDS011;63025;55.472;38.432;2023-07-31T09:08:21;5.80;;;2.95;;
74551;SDS011;63025;55.472;38.432;2023-07-31T09:10:48;6.80;;;2.47;;
74551;SDS011;63025;55.472;38.432;2023-07-31T09:13:17;4.65;;;2.00;;
74551;SDS011;63025;55.472;38.432;2023-07-31T09:15:44;5.53;;;2.13;;
74551;SDS011;63025;55.472;38.432;2023-07-31T09:18:11;4.95;;;2.35;;
74551;SDS011;63025;55.472;38.432;2023-07-31T09:20:37;3.47;;;1.80;;
74551;SDS011;63025;55.472;38.432;2023-07-31T09:23:08;4.25;;;1.83;;
74551;SDS011;63025;55.472;38.432;2023-07-31T09:25:35;7.53;;;3.17;;
74551;SDS011;63025;55.472;38.432;2023-07-31T09:28:08;4.43;;;1.70;;
74551;SDS011;63025;55.472;38.432;2023-07-31T09:33:12;5.03;;;1.80;;
74551;SDS011;63025;55.472;38.432;2023-07-31T09:35:38;4.13;;;1.80;;
74551;SDS011;63025;55.472;38.432;2023-07-31T09:38:07;3.55;;;1.90;;
74551;SDS011;63025;55.472;38.432;2023-07-31T09:40:38;4.07;;;1.73;;
74551;SDS011;63025;55.472;38.432;2023-07-31T09:43:05;6.20;;;1.80;;
74551;SDS011;63025;55.472;38.432;2023-07-31T09:45:40;5.95;;;1.70;;
74551;SDS011;63025;55.472;38.432;2023-07-31T09:48:14;3.47;;;1.55;;
74551;SDS011;63025;55.472;38.432;2023-07-31T09:50:46;3.55;;;1.60;;
74551;SDS011;63025;55.472;38.432;2023-07-31T09:53:14;2.83;;;1.50;;
74551;SDS011;63025;55.472;38.432;2023-07-31T09:55:41;2.88;;;1.60;;
74551;SDS011;63025;55.472;38.432;2023-07-31T09:58:09;3.85;;;1.52;;
74551;SDS011;63025;55.472;38.432;2023-07-31T10:00:36;5.22;;;1.70;;
74551;SDS011;63025;55.472;38.432;2023-07-31T10:03:06;5.20;;;1.92;;
74551;SDS011;63025;55.472;38.432;2023-07-31T10:05:34;4.60;;;1.80;;
74551;SDS011;63025;55.472;38.432;2023-07-31T10:08:03;3.70;;;1.67;;
74551;SDS011;63025;55.472;38.432;2023-07-31T10:10:30;3.40;;;1.63;;
74551;SDS011;63025;55.472;38.432;2023-07-31T10:12:57;5.25;;;1.75;;
74551;SDS011;63025;55.472;38.432;2023-07-31T10:15:24;4.35;;;1.70;;
74551;SDS011;63025;55.472;38.432;2023-07-31T10:17:51;5.78;;;1.90;;
74551;SDS011;63025;55.472;38.432;2023-07-31T10:20:19;5.03;;;1.80;;
74551;SDS011;63025;55.472;38.432;2023-07-31T10:22:46;3.15;;;1.70;;
74551;SDS011;63025;55.472;38.432;2023-07-31T10:25:14;3.35;;;1.70;;
74551;SDS011;63025;55.472;38.432;2023-07-31T10:27:41;4.70;;;1.80;;
74551;SDS011;63025;55.472;38.432;2023-07-31T10:30:08;5.63;;;1.85;;
74551;SDS011;63025;55.472;38.432;2023-07-31T10:32:38;4.10;;;1.52;;
74551;SDS011;63025;55.472;38.432;2023-07-31T10:35:07;5.05;;;2.00;;
74551;SDS011;63025;55.472;38.432;2023-07-31T10:37:38;4.68;;;2.03;;
74551;SDS011;63025;55.472;38.432;2023-07-31T10:40:06;6.75;;;1.90;;
74551;SDS011;63025;55.472;38.432;2023-07-31T10:42:51;3.85;;;1.92;;
74551;SDS011;63025;55.472;38.432;2023-07-31T10:45:25;3.35;;;1.80;;
74551;SDS011;63025;55.472;38.432;2023-07-31T10:47:58;4.32;;;1.75;;
74551;SDS011;63025;55.472;38.432;2023-07-31T10:50:26;3.63;;;2.00;;
74551;SDS011;63025;55.472;38.432;2023-07-31T10:52:56;3.22;;;1.90;;
74551;SDS011;63025;55.472;38.432;2023-07-31T10:55:24;3.63;;;1.80;;
74551;SDS011;63025;55.472;38.432;2023-07-31T10:57:57;4.35;;;2.08;;
74551;SDS011;63025;55.472;38.432;2023-07-31T11:00:30;5.65;;;1.90;;
74551;SDS011;63025;55.472;38.432;2023-07-31T11:03:00;4.53;;;1.83;;
74551;SDS011;63025;55.472;38.432;2023-07-31T11:08:25;4.15;;;2.20;;
74551;SDS011;63025;55.472;38.432;2023-07-31T11:13:30;4.10;;;2.33;;
74551;SDS011;63025;55.472;38.432;2023-07-31T11:16:04;6.70;;;2.20;;
74551;SDS011;63025;55.472;38.432;2023-07-31T11:18:31;3.97;;;2.10;;
74551;SDS011;63025;55.472;38.432;2023-07-31T11:20:57;3.72;;;2.20;;
74551;SDS011;63025;55.472;38.432;2023-07-31T11:23:23;10.90;;;2.60;;
74551;SDS011;63025;55.472;38.432;2023-07-31T11:25:49;4.70;;;2.42;;
74551;SDS011;63025;55.472;38.432;2023-07-31T11:28:17;4.40;;;2.60;;
74551;SDS011;63025;55.472;38.432;2023-07-31T11:30:45;4.25;;;2.20;;
74551;SDS011;63025;55.472;38.432;2023-07-31T11:33:12;6.70;;;2.53;;
74551;SDS011;63025;55.472;38.432;2023-07-31T11:35:46;4.38;;;2.17;;
74551;SDS011;63025;55.472;38.432;2023-07-31T11:38:21;5.63;;;2.60;;
74551;SDS011;63025;55.472;38.432;2023-07-31T11:40:52;5.28;;;2.20;;
74551;SDS011;63025;55.472;38.432;2023-07-31T11:43:20;4.57;;;2.40;;
74551;SDS011;63025;55.472;38.432;2023-07-31T11:45:51;4.50;;;1.85;;
74551;SDS011;63025;55.472;38.432;2023-07-31T11:48:28;4.22;;;2.10;;
74551;SDS011;63025;55.472;38.432;2023-07-31T11:50:59;3.58;;;2.42;;
74551;SDS011;63025;55.472;38.432;2023-07-31T11:53:35;6.30;;;2.20;;
74551;SDS011;63025;55.472;38.432;2023-07-31T11:56:04;4.43;;;2.30;;
74551;SDS011;63025;55.472;38.432;2023-07-31T11:58:33;3.40;;;2.15;;
74551;SDS011;63025;55.472;38.432;2023-07-31T12:01:00;4.10;;;2.25;;
74551;SDS011;63025;55.472;38.432;2023-07-31T12:03:27;3.30;;;2.10;;
74551;SDS011;63025;55.472;38.432;2023-07-31T12:05:54;7.13;;;2.20;;
74551;SDS011;63025;55.472;38.432;2023-07-31T12:08:20;5.00;;;2.22;;
74551;SDS011;63025;55.472;38.432;2023-07-31T12:10:50;6.45;;;3.40;;
74551;SDS011;63025;55.472;38.432;2023-07-31T12:13:21;7.95;;;4.57;;
74551;SDS011;63025;55.472;38.432;2023-07-31T12:15:48;10.35;;;6.38;;
74551;SDS011;63025;55.472;38.432;2023-07-31T12:18:18;13.50;;;9.32;;
74551;SDS011;63025;55.472;38.432;2023-07-31T12:21:27;10.18;;;7.07;;
74551;SDS011;63025;55.472;38.432;2023-07-31T12:23:37;9.52;;;3.30;;
74551;SDS011;63025;55.472;38.432;2023-07-31T12:26:03;6.10;;;2.92;;
74551;SDS011;63025;55.472;38.432;2023-07-31T12:28:49;14.25;;;9.35;;
74551;SDS011;63025;55.472;38.432;2023-07-31T12:31:20;6.32;;;3.28;;
74551;SDS011;63025;55.472;38.432;2023-07-31T12:33:49;5.75;;;3.33;;
74551;SDS011;63025;55.472;38.432;2023-07-31T12:36:17;9.82;;;4.57;;
74551;SDS011;63025;55.472;38.432;2023-07-31T12:38:47;7.63;;;4.68;;
74551;SDS011;63025;55.472;38.432;2023-07-31T12:41:13;8.23;;;4.78;;
74551;SDS011;63025;55.472;38.432;2023-07-31T12:43:40;5.63;;;3.55;;
74551;SDS011;63025;55.472;38.432;2023-07-31T12:46:07;6.75;;;3.28;;
74551;SDS011;63025;55.472;38.432;2023-07-31T12:48:33;5.78;;;3.55;;
74551;SDS011;63025;55.472;38.432;2023-07-31T12:51:00;8.23;;;4.35;;
74551;SDS011;63025;55.472;38.432;2023-07-31T12:53:27;3.63;;;2.20;;
74551;SDS011;63025;55.472;38.432;2023-07-31T12:55:53;4.75;;;2.10;;
74551;SDS011;63025;55.472;38.432;2023-07-31T12:58:19;3.45;;;2.15;;
74551;SDS011;63025;55.472;38.432;2023-07-31T13:00:45;6.07;;;3.20;;
74551;SDS011;63025;55.472;38.432;2023-07-31T13:03:10;6.53;;;2.35;;
74551;SDS011;63025;55.472;38.432;2023-07-31T13:05:36;5.00;;;2.50;;
74551;SDS011;63025;55.472;38.432;2023-07-31T13:08:02;4.45;;;2.30;;
74551;SDS011;63025;55.472;38.432;2023-07-31T13:10:43;4.38;;;2.35;;
74551;SDS011;63025;55.472;38.432;2023-07-31T13:13:09;3.55;;;2.10;;
74551;SDS011;63025;55.472;38.432;2023-07-31T13:15:35;4.72;;;2.17;;
74551;SDS011;63025;55.472;38.432;2023-07-31T13:18:01;5.03;;;2.60;;
74551;SDS011;63025;55.472;38.432;2023-07-31T13:20:27;5.03;;;2.30;;
74551;SDS011;63025;55.472;38.432;2023-07-31T13:22:53;3.75;;;2.47;;
74551;SDS011;63025;55.472;38.432;2023-07-31T13:25:19;6.18;;;2.40;;
74551;SDS011;63025;55.472;38.432;2023-07-31T13:27:45;3.95;;;2.10;;
74551;SDS011;63025;55.472;38.432;2023-07-31T13:30:11;4.20;;;2.30;;
74551;SDS011;63025;55.472;38.432;2023-07-31T13:32:36;4.32;;;1.90;;
74551;SDS011;63025;55.472;38.432;2023-07-31T13:35:07;4.28;;;2.20;;
74551;SDS011;63025;55.472;38.432;2023-07-31T13:37:34;5.03;;;2.47;;
74551;SDS011;63025;55.472;38.432;2023-07-31T13:40:00;7.03;;;3.20;;
74551;SDS011;63025;55.472;38.432;2023-07-31T13:42:30;6.38;;;2.33;;
74551;SDS011;63025;55.472;38.432;2023-07-31T13:44:57;4.43;;;1.90;;
74551;SDS011;63025;55.472;38.432;2023-07-31T13:47:23;4.97;;;2.10;;
74551;SDS011;63025;55.472;38.432;2023-07-31T13:49:48;3.30;;;2.10;;
74551;SDS011;63025;55.472;38.432;2023-07-31T13:52:14;3.63;;;2.30;;
74551;SDS011;63025;55.472;38.432;2023-07-31T13:54:40;5.63;;;2.08;;
74551;SDS011;63025;55.472;38.432;2023-07-31T13:57:08;4.47;;;2.00;;
74551;SDS011;63025;55.472;38.432;2023-07-31T13:59:34;3.67;;;2.00;;
74551;SDS011;63025;55.472;38.432;2023-07-31T14:02:00;6.53;;;2.20;;
74551;SDS011;63025;55.472;38.432;2023-07-31T14:04:25;5.07;;;2.30;;
74551;SDS011;63025;55.472;38.432;2023-07-31T14:06:51;3.17;;;2.30;;
74551;SDS011;63025;55.472;38.432;2023-07-31T14:09:17;5.75;;;2.30;;
74551;SDS011;63025;55.472;38.432;2023-07-31T14:11:43;3.78;;;2.20;;
74551;SDS011;63025;55.472;38.432;2023-07-31T14:14:09;3.45;;;2.40;;
74551;SDS011;63025;55.472;38.432;2023-07-31T14:16:35;7.18;;;2.10;;
74551;SDS011;63025;55.472;38.432;2023-07-31T14:19:01;4.97;;;2.28;;
74551;SDS011;63025;55.472;38.432;2023-07-31T14:21:27;3.25;;;2.08;;
74551;SDS011;63025;55.472;38.432;2023-07-31T14:23:53;3.90;;;2.17;;
74551;SDS011;63025;55.472;38.432;2023-07-31T14:26:19;3.70;;;2.20;;
74551;SDS011;63025;55.472;38.432;2023-07-31T14:28:45;4.28;;;2.08;;
74551;SDS011;63025;55.472;38.432;2023-07-31T14:31:11;7.15;;;2.60;;
74551;SDS011;63025;55.472;38.432;2023-07-31T14:33:37;4.95;;;2.22;;
74551;SDS011;63025;55.472;38.432;2023-07-31T14:36:06;3.15;;;2.30;;
74551;SDS011;63025;55.472;38.432;2023-07-31T14:38:32;3.75;;;1.90;;
74551;SDS011;63025;55.472;38.432;2023-07-31T14:40:58;3.95;;;2.30;;
74551;SDS011;63025;55.472;38.432;2023-07-31T14:43:24;3.95;;;2.20;;
74551;SDS011;63025;55.472;38.432;2023-07-31T14:45:50;4.00;;;2.20;;